createdAt,value
2022-08-02T00:03:24.653Z,100396.53
2022-08-02T00:08:26.491Z,100386.53
2022-08-02T00:13:28.205Z,100387.72
2022-08-02T00:18:29.764Z,100385.59
2022-08-02T00:23:31.382Z,100378.19
2022-08-02T00:28:33.030Z,100383.19
2022-08-02T00:34:09.138Z,100380.34
2022-08-02T00:38:57.078Z,100391.25
2022-08-02T00:43:58.673Z,100390.19
2022-08-02T00:49:00.301Z,100384.75
2022-08-02T00:54:03.350Z,100390.38
2022-08-02T00:59:05.165Z,100388.97
2022-08-02T01:04:14.039Z,100393.81
2022-08-02T01:09:17.071Z,100386.97
2022-08-02T01:14:18.927Z,100385.09
2022-08-02T01:19:38.798Z,100384.75
2022-08-02T01:25:02.286Z,100388.47
2022-08-02T01:30:04.439Z,100380.94
2022-08-02T01:35:17.411Z,100383.47
2022-08-02T01:40:32.514Z,100385.97
2022-08-02T01:45:35.745Z,100398.75
2022-08-02T01:50:38.211Z,100396.84
2022-08-02T01:55:57.934Z,100390.16
2022-08-02T02:01:01.191Z,100392.47
2022-08-02T02:06:03.698Z,100389.75
2022-08-02T02:12:11.834Z,100406.47
2022-08-02T02:16:28.701Z,100403.13
2022-08-02T02:21:30.696Z,100400.41
2022-08-02T02:26:33.571Z,100411.09
2022-08-02T02:31:39.385Z,100413.78
2022-08-02T02:36:44.830Z,100425.78
2022-08-02T02:41:49.095Z,100413.38
2022-08-02T02:46:53.707Z,100420.28
2022-08-02T02:51:55.943Z,100429.66
2022-08-02T02:56:58.534Z,100426.94
2022-08-02T03:02:00.307Z,100429.81
2022-08-02T03:07:02.134Z,100433.63
2022-08-02T03:12:04.110Z,100437.19
2022-08-02T03:17:05.683Z,100439.06
2022-08-02T03:22:07.422Z,100442.72
2022-08-02T03:27:09.092Z,100440.91
2022-08-02T03:32:11.027Z,100434.00
2022-08-02T03:37:12.768Z,100434.06
2022-08-02T03:42:15.372Z,100429.47
2022-08-02T03:47:18.579Z,100432.78
2022-08-02T03:52:20.523Z,100444.25
2022-08-02T03:57:22.184Z,100457.63
2022-08-02T04:02:23.766Z,100457.03
2022-08-02T04:08:02.753Z,100464.16
2022-08-02T04:12:46.922Z,100473.34
2022-08-02T04:17:52.032Z,100470.59
2022-08-02T04:23:08.037Z,100472.06
2022-08-02T04:28:16.988Z,100477.34
2022-08-02T04:33:20.065Z,100482.78
2022-08-02T04:38:21.716Z,100498.03
2022-08-02T04:43:23.816Z,100502.66
2022-08-02T04:48:25.418Z,100498.63
2022-08-02T04:53:27.023Z,100508.75
2022-08-02T04:58:44.056Z,100521.44
2022-08-02T05:03:46.857Z,100517.28
2022-08-02T05:08:52.811Z,100514.75
2022-08-02T05:13:57.524Z,100515.00
2022-08-02T05:19:00.988Z,100519.78
2022-08-02T05:24:02.821Z,100515.97
2022-08-02T05:29:05.032Z,100511.38
2022-08-02T05:34:11.371Z,100506.28
2022-08-02T05:39:18.860Z,100517.41
2022-08-02T05:44:20.834Z,100517.72
2022-08-02T05:49:22.531Z,100520.47
2022-08-02T05:55:09.875Z,100512.47
2022-08-02T06:00:13.814Z,100511.81
2022-08-02T06:05:22.703Z,100521.00
2022-08-02T06:10:27.409Z,100528.88
2022-08-02T06:15:29.366Z,100528.91
2022-08-02T06:20:37.737Z,100524.41
2022-08-02T06:25:51.212Z,100532.69
2022-08-02T06:30:53.869Z,100538.66
2022-08-02T06:36:04.459Z,100548.03
2022-08-02T06:41:14.052Z,100542.00
2022-08-02T06:46:34.500Z,100535.19
2022-08-02T06:51:37.680Z,100535.53
2022-08-02T06:56:39.306Z,100532.72
2022-08-02T07:01:41.406Z,100531.22
2022-08-02T07:06:42.991Z,100530.78
2022-08-02T07:11:44.536Z,100523.91
2022-08-02T07:16:46.175Z,100528.22
2022-08-02T07:21:56.701Z,100529.50
2022-08-02T07:27:11.106Z,100529.19
2022-08-02T07:32:13.537Z,100532.25
2022-08-02T07:37:36.040Z,100518.97
2022-08-02T07:42:37.331Z,100517.16
2022-08-02T07:47:43.566Z,100516.31
2022-08-02T07:52:46.119Z,100513.81
2022-08-02T07:57:47.756Z,100502.38
2022-08-02T08:02:49.550Z,100496.91
2022-08-02T08:07:52.168Z,100499.78
2022-08-02T08:12:55.198Z,100501.13
2022-08-02T08:17:56.824Z,100495.81
2022-08-02T08:22:58.401Z,100494.38
2022-08-02T08:28:00.037Z,100489.50
2022-08-02T08:33:02.001Z,100490.00
2022-08-02T08:38:07.514Z,100488.09
2022-08-02T08:43:09.599Z,100487.50
2022-08-02T08:48:30.429Z,100485.88
2022-08-02T08:53:42.477Z,100481.09
2022-08-02T08:58:45.558Z,100482.41
2022-08-02T09:03:47.211Z,100481.34
2022-08-02T09:08:48.893Z,100475.41
2022-08-02T09:13:52.022Z,100469.75
2022-08-02T09:18:53.586Z,100472.44
2022-08-02T09:23:57.316Z,100479.78
2022-08-02T09:29:02.570Z,100481.84
2022-08-02T09:34:04.433Z,100472.56
2022-08-02T09:39:07.818Z,100469.81
2022-08-02T09:44:15.719Z,100458.22
2022-08-02T09:49:19.333Z,100456.97
2022-08-02T09:54:24.683Z,100444.78
2022-08-02T09:59:27.764Z,100439.81
2022-08-02T10:04:31.978Z,100436.78
2022-08-02T10:09:39.031Z,100446.31
2022-08-02T10:14:45.227Z,100429.72
2022-08-02T10:20:02.373Z,100430.75
2022-08-02T10:25:06.747Z,100422.78
2022-08-02T10:30:10.088Z,100422.78
2022-08-02T10:35:25.220Z,100427.25
2022-08-02T10:40:46.135Z,100413.13
2022-08-02T10:45:50.721Z,100397.50
2022-08-02T10:50:53.045Z,100399.25
2022-08-02T10:55:56.104Z,100391.81
2022-08-02T11:00:59.383Z,100382.97
2022-08-02T11:06:03.037Z,100384.13
2022-08-02T11:11:10.504Z,100381.81
2022-08-02T11:16:12.294Z,100382.72
2022-08-02T11:21:30.709Z,100384.06
2022-08-02T11:26:32.236Z,100389.97
2022-08-02T11:31:42.229Z,100386.22
2022-08-02T11:36:48.191Z,100394.53
2022-08-02T11:41:53.952Z,100396.44
2022-08-02T11:47:02.599Z,100388.31
2022-08-02T11:52:06.465Z,100389.28
2022-08-02T11:57:14.393Z,100379.91
2022-08-02T12:02:22.528Z,100370.91
2022-08-02T12:07:34.510Z,100363.44
2022-08-02T12:12:54.563Z,100356.28
2022-08-02T12:18:14.351Z,100358.97
2022-08-02T12:23:15.921Z,100355.53
2022-08-02T12:28:22.363Z,100353.38
2022-08-02T12:33:28.492Z,100330.31
2022-08-02T12:38:30.235Z,100323.44
2022-08-02T12:43:31.876Z,100319.84
2022-08-02T12:48:42.709Z,100325.44
2022-08-02T12:53:58.971Z,100310.22
2022-08-02T12:59:01.773Z,100316.44
2022-08-02T13:04:07.935Z,100320.84
2022-08-02T13:09:17.089Z,100317.25
2022-08-02T13:14:19.007Z,100313.94
2022-08-02T13:19:20.639Z,100308.69
2022-08-02T13:24:38.333Z,100294.72
2022-08-02T13:29:43.189Z,100302.84
2022-08-02T13:34:44.941Z,100300.97
2022-08-02T13:40:00.512Z,100283.09
2022-08-02T13:45:12.545Z,100286.19
2022-08-02T13:50:16.448Z,100278.31
2022-08-02T13:55:18.106Z,100276.47
2022-08-02T14:00:19.649Z,100273.06
2022-08-02T14:05:47.867Z,100271.22
2022-08-02T14:10:51.221Z,100269.50
2022-08-02T14:15:52.895Z,100266.31
2022-08-02T14:20:54.515Z,100268.97
2022-08-02T14:25:57.306Z,100255.56
2022-08-02T14:30:58.832Z,100252.34
2022-08-02T14:36:00.496Z,100256.31
2022-08-02T14:41:02.120Z,100246.66
2022-08-02T14:46:03.676Z,100245.72
2022-08-02T14:51:05.312Z,100235.84
2022-08-02T14:56:06.895Z,100233.69
2022-08-02T15:01:08.527Z,100238.94
2022-08-02T15:06:10.169Z,100234.88
2022-08-02T15:11:12.053Z,100235.84
2022-08-02T15:16:13.666Z,100229.69
2022-08-02T15:21:40.679Z,100217.16
2022-08-02T15:26:36.873Z,100207.44
2022-08-02T15:31:41.779Z,100217.34
2022-08-02T15:36:43.476Z,100216.84
2022-08-02T15:41:45.027Z,100209.78
2022-08-02T15:46:46.710Z,100202.28
2022-08-02T15:51:48.261Z,100212.75
2022-08-02T15:56:50.049Z,100212.09
2022-08-02T16:01:51.618Z,100214.91
2022-08-02T16:06:53.681Z,100207.81
2022-08-02T16:11:55.537Z,100205.31
2022-08-02T16:16:57.095Z,100206.16
2022-08-02T16:21:58.635Z,100211.09
2022-08-02T16:27:00.186Z,100197.56
2022-08-02T16:32:01.720Z,100201.94
2022-08-02T16:37:03.421Z,100198.09
2022-08-02T16:42:04.985Z,100199.22
2022-08-02T16:47:06.808Z,100196.50
2022-08-02T16:52:09.578Z,100201.63
2022-08-02T16:57:11.363Z,100213.56
2022-08-02T17:02:19.604Z,100207.19
2022-08-02T17:08:07.566Z,100199.22
2022-08-02T17:12:44.808Z,100200.31
2022-08-02T17:17:52.920Z,100210.13
2022-08-02T17:22:54.457Z,100210.34
2022-08-02T17:27:56.205Z,100217.03
2022-08-02T17:32:59.427Z,100207.66
2022-08-02T17:38:01.142Z,100221.34
2022-08-02T17:43:02.793Z,100212.78
2022-08-02T17:48:16.396Z,100207.75
2022-08-02T17:53:18.953Z,100212.66
2022-08-02T17:58:20.501Z,100216.97
2022-08-02T18:03:22.925Z,100206.44
2022-08-02T18:08:24.588Z,100211.38
2022-08-02T18:13:26.197Z,100219.63
2022-08-02T18:18:34.316Z,100220.41
2022-08-02T18:23:38.100Z,100217.19
2022-08-02T18:28:45.929Z,100228.47
2022-08-02T18:33:54.465Z,100227.81
2022-08-02T18:38:58.170Z,100230.13
2022-08-02T18:44:01.308Z,100234.19
2022-08-02T18:49:06.774Z,100233.88
2022-08-02T18:54:16.850Z,100232.81
2022-08-02T18:59:36.634Z,100242.88
2022-08-02T19:04:43.579Z,100241.75
2022-08-02T19:09:49.378Z,100238.25
2022-08-02T19:14:52.156Z,100245.78
2022-08-02T19:19:56.061Z,100243.44
2022-08-02T19:25:00.987Z,100247.69
2022-08-02T19:30:07.789Z,100244.53
2022-08-02T19:35:19.985Z,100252.91
2022-08-02T19:40:31.822Z,100256.91
2022-08-02T19:45:49.593Z,100261.47
2022-08-02T19:50:56.061Z,100263.50
2022-08-02T19:56:02.782Z,100269.50
2022-08-02T20:01:05.546Z,100271.78
2022-08-02T20:06:07.137Z,100271.47
2022-08-02T20:11:14.916Z,100287.25
2022-08-02T20:16:27.996Z,100287.72
2022-08-02T20:21:36.266Z,100284.88
2022-08-02T20:26:47.254Z,100291.31
2022-08-02T20:31:50.513Z,100287.66
2022-08-02T20:36:53.920Z,100285.78
2022-08-02T20:41:58.672Z,100285.19
2022-08-02T20:47:01.321Z,100295.25
2022-08-02T20:52:03.044Z,100298.22
2022-08-02T20:57:48.799Z,100294.81
2022-08-02T21:02:46.363Z,100290.31
2022-08-02T21:07:53.398Z,100286.41
2022-08-02T21:12:56.527Z,100284.75
2022-08-02T21:18:01.421Z,100289.41
2022-08-02T21:23:08.899Z,100285.00
2022-08-02T21:28:21.810Z,100283.97
2022-08-02T21:33:24.682Z,100284.66
2022-08-02T21:38:36.570Z,100276.00
2022-08-02T21:43:38.642Z,100276.00
2022-08-02T21:48:40.814Z,100285.28
2022-08-02T21:53:43.117Z,100290.03
2022-08-02T21:58:44.767Z,100286.63
2022-08-02T22:03:55.736Z,100280.78
2022-08-02T22:08:57.397Z,100276.97
2022-08-02T22:14:02.074Z,100277.19
2022-08-02T22:19:03.998Z,100284.00
2022-08-02T22:24:12.843Z,100289.69
2022-08-02T22:29:21.018Z,100288.00
2022-08-02T22:34:26.801Z,100289.44
2022-08-02T22:40:06.097Z,100299.31
2022-08-02T22:45:06.171Z,100307.28
2022-08-02T22:50:11.802Z,100305.03
2022-08-02T22:55:14.197Z,100305.03
2022-08-02T23:00:16.148Z,100300.84
2022-08-02T23:05:17.809Z,100300.09
2022-08-02T23:10:19.404Z,100306.66
2022-08-02T23:15:21.006Z,100302.47
2022-08-02T23:20:22.683Z,100311.31
2022-08-02T23:25:24.218Z,100314.53
2022-08-02T23:30:26.024Z,100314.13
2022-08-02T23:35:27.689Z,100311.88
2022-08-02T23:40:39.212Z,100312.19
2022-08-02T23:45:44.406Z,100308.88
2022-08-02T23:50:46.019Z,100313.38
2022-08-02T23:55:47.620Z,100308.72
